createdAt,value
2018-11-22T00:00:57.122Z,19.33
2018-11-22T00:03:27.925Z,19.20
2018-11-22T00:05:58.735Z,20.27
2018-11-22T00:08:28.633Z,19.40
2018-11-22T00:10:58.523Z,18.33
2018-11-22T00:13:28.607Z,16.77
2018-11-22T00:15:58.502Z,18.70
2018-11-22T00:18:28.409Z,18.30
2018-11-22T00:20:58.323Z,18.10
2018-11-22T00:23:28.202Z,18.53
2018-11-22T00:25:58.418Z,18.10
2018-11-22T00:28:28.291Z,18.47
2018-11-22T00:30:58.467Z,19.50
2018-11-22T00:33:28.348Z,17.80
2018-11-22T00:35:58.235Z,18.50
2018-11-22T00:38:28.132Z,18.80
2018-11-22T00:40:58.047Z,17.20
2018-11-22T00:43:27.939Z,18.57
2018-11-22T00:45:57.841Z,19.03
2018-11-22T00:48:27.717Z,18.50
2018-11-22T00:50:57.631Z,16.93
2018-11-22T00:53:27.518Z,20.00
2018-11-22T00:55:57.467Z,18.87
2018-11-22T00:58:27.341Z,18.93
2018-11-22T01:00:57.243Z,19.07
2018-11-22T01:03:27.125Z,19.53
2018-11-22T01:05:57.307Z,19.50
2018-11-22T01:08:27.196Z,18.83
2018-11-22T01:10:57.100Z,18.90
2018-11-22T01:13:26.987Z,20.07
2018-11-22T01:15:57.202Z,19.70
2018-11-22T01:18:27.071Z,20.13
2018-11-22T01:20:56.970Z,21.70
2018-11-22T01:23:26.870Z,19.87
2018-11-22T01:25:56.802Z,20.50
2018-11-22T01:28:26.694Z,19.93
2018-11-22T01:30:56.594Z,21.23
2018-11-22T01:33:26.511Z,21.57
2018-11-22T01:35:56.387Z,20.73
2018-11-22T01:38:26.279Z,19.83
2018-11-22T01:40:56.184Z,19.90
2018-11-22T01:43:26.078Z,21.37
2018-11-22T01:45:56.328Z,22.07
2018-11-22T01:48:26.239Z,21.73
2018-11-22T01:50:56.143Z,20.93
2018-11-22T01:53:26.061Z,21.63
2018-11-22T01:55:55.938Z,20.50
2018-11-22T01:58:25.838Z,20.80
2018-11-22T02:00:55.751Z,22.13
2018-11-22T02:03:25.656Z,22.33
2018-11-22T02:05:55.555Z,21.83
2018-11-22T02:08:25.458Z,20.93
2018-11-22T02:10:55.358Z,20.40
2018-11-22T02:13:25.274Z,22.00
2018-11-22T02:15:55.163Z,20.90
2018-11-22T02:18:25.071Z,21.70
2018-11-22T02:20:55.343Z,21.40
2018-11-22T02:23:25.266Z,20.53
2018-11-22T02:25:55.167Z,21.93
2018-11-22T02:28:25.046Z,22.60
2018-11-22T02:30:54.948Z,20.77
2018-11-22T02:33:25.006Z,23.27
2018-11-22T02:35:54.883Z,21.87
2018-11-22T02:38:25.105Z,21.70
2018-11-22T02:40:55.027Z,22.90
2018-11-22T02:43:24.938Z,21.30
2018-11-22T02:45:54.823Z,19.40
2018-11-22T02:48:24.747Z,20.50
2018-11-22T02:50:54.945Z,20.47
2018-11-22T02:53:24.849Z,21.53
2018-11-22T02:55:55.044Z,21.83
2018-11-22T02:58:24.940Z,21.37
2018-11-22T03:00:54.843Z,20.20
2018-11-22T03:03:24.728Z,20.57
2018-11-22T03:05:55.180Z,21.33
2018-11-22T03:08:25.059Z,21.67
2018-11-22T03:10:54.992Z,21.70
2018-11-22T03:13:24.879Z,20.57
2018-11-22T03:15:54.779Z,19.53
2018-11-22T03:18:24.671Z,21.10
2018-11-22T03:20:54.582Z,20.90
2018-11-22T03:23:24.499Z,20.97
2018-11-22T03:25:54.430Z,20.13
2018-11-22T03:28:24.312Z,20.80
2018-11-22T03:30:54.205Z,19.83
2018-11-22T03:33:24.089Z,20.83
2018-11-22T03:35:54.033Z,20.13
2018-11-22T03:38:24.024Z,20.13
2018-11-22T03:40:53.922Z,20.00
2018-11-22T03:43:24.577Z,20.20
2018-11-22T03:45:54.500Z,20.37
2018-11-22T03:48:24.405Z,19.23
2018-11-22T03:50:54.297Z,20.97
2018-11-22T03:53:24.175Z,19.63
2018-11-22T03:55:54.373Z,21.23
2018-11-22T03:58:24.268Z,20.77
2018-11-22T04:00:55.344Z,20.70
2018-11-22T04:03:25.221Z,21.10
2018-11-22T04:05:55.152Z,21.40
2018-11-22T04:08:25.063Z,21.77
2018-11-22T04:10:54.963Z,22.07
2018-11-22T04:13:24.860Z,22.90
2018-11-22T04:15:54.752Z,21.40
2018-11-22T04:18:24.667Z,22.47
2018-11-22T04:20:54.853Z,22.93
2018-11-22T04:23:24.769Z,22.70
2018-11-22T04:25:54.659Z,24.20
2018-11-22T04:28:25.452Z,30.23
2018-11-22T04:30:55.359Z,23.97
2018-11-22T04:33:25.244Z,24.10
2018-11-22T04:35:55.139Z,24.50
2018-11-22T04:38:25.072Z,24.67
2018-11-22T04:40:55.842Z,25.13
2018-11-22T04:43:25.736Z,24.07
2018-11-22T04:45:55.623Z,24.27
2018-11-22T04:48:25.553Z,24.07
2018-11-22T04:50:55.435Z,24.83
2018-11-22T04:53:25.349Z,24.17
2018-11-22T04:55:55.244Z,23.93
2018-11-22T04:58:25.179Z,23.97
2018-11-22T05:00:55.095Z,25.30
2018-11-22T05:03:24.998Z,24.37
2018-11-22T05:05:54.897Z,24.90
2018-11-22T05:08:24.871Z,26.60
2018-11-22T05:10:54.763Z,24.37
2018-11-22T05:13:24.706Z,25.00
2018-11-22T05:15:54.588Z,24.83
2018-11-22T05:18:24.491Z,26.20
2018-11-22T05:20:54.384Z,23.97
2018-11-22T05:23:24.343Z,23.50
2018-11-22T05:25:54.247Z,24.67
2018-11-22T05:28:24.145Z,24.70
2018-11-22T05:30:54.051Z,25.00
2018-11-22T05:33:23.957Z,25.17
2018-11-22T05:35:53.873Z,25.53
2018-11-22T05:38:23.764Z,27.30
2018-11-22T05:40:54.034Z,27.30
2018-11-22T05:43:24.019Z,28.07
2018-11-22T05:45:53.914Z,27.37
2018-11-22T05:48:24.142Z,26.17
2018-11-22T05:50:54.059Z,28.07
2018-11-22T05:53:23.962Z,27.27
2018-11-22T05:55:53.887Z,28.90
2018-11-22T05:58:23.807Z,28.80
2018-11-22T06:00:53.702Z,27.40
2018-11-22T06:03:23.599Z,27.70
2018-11-22T06:05:53.530Z,27.73
2018-11-22T06:08:23.415Z,25.83
2018-11-22T06:10:53.327Z,27.80
2018-11-22T06:13:23.220Z,25.40
2018-11-22T06:15:53.160Z,27.80
2018-11-22T06:18:23.065Z,26.97
2018-11-22T06:20:52.960Z,26.90
2018-11-22T06:23:23.747Z,27.90
2018-11-22T06:25:54.063Z,25.63
2018-11-22T06:28:23.947Z,26.60
2018-11-22T06:30:53.887Z,26.67
2018-11-22T06:33:23.808Z,26.23
2018-11-22T06:35:54.403Z,25.40
2018-11-22T06:38:24.299Z,24.30
2018-11-22T06:40:54.201Z,25.97
2018-11-22T06:43:24.091Z,26.53
2018-11-22T06:45:54.256Z,25.90
2018-11-22T06:48:24.123Z,24.83
2018-11-22T06:50:58.151Z,26.07
2018-11-22T06:53:23.921Z,25.27
2018-11-22T06:55:53.967Z,26.77
2018-11-22T06:58:23.878Z,26.10
2018-11-22T07:01:09.974Z,26.10
2018-11-22T07:03:46.356Z,25.87
2018-11-22T07:06:16.532Z,24.97
2018-11-22T07:08:46.483Z,27.37
2018-11-22T07:11:16.406Z,26.87
2018-11-22T07:13:46.612Z,23.23
2018-11-22T07:16:16.511Z,25.90
2018-11-22T07:18:46.435Z,27.13
2018-11-22T07:21:16.608Z,27.10
2018-11-22T07:23:46.511Z,26.53
2018-11-22T07:26:16.469Z,27.53
2018-11-22T07:28:46.410Z,26.07
2018-11-22T07:31:16.304Z,25.47
2018-11-22T07:33:46.207Z,25.70
2018-11-22T07:36:16.119Z,27.30
2018-11-22T07:38:46.023Z,29.43
2018-11-22T07:41:16.104Z,27.83
2018-11-22T07:43:46.012Z,27.97
2018-11-22T07:46:15.916Z,26.13
2018-11-22T07:48:45.839Z,26.77
2018-11-22T07:51:15.755Z,28.80
2018-11-22T07:53:45.795Z,27.50
2018-11-22T07:56:15.724Z,27.57
2018-11-22T07:58:45.644Z,27.63
2018-11-22T08:01:15.561Z,28.10
2018-11-22T08:03:45.464Z,27.67
2018-11-22T08:06:15.353Z,27.30
2018-11-22T08:08:45.279Z,29.17
2018-11-22T08:11:15.185Z,28.40
2018-11-22T08:13:45.878Z,33.00
2018-11-22T08:16:14.995Z,28.00
2018-11-22T08:18:44.906Z,30.03
2018-11-22T08:21:14.784Z,28.60
2018-11-22T08:23:44.678Z,28.80
2018-11-22T08:26:15.491Z,28.40
2018-11-22T08:28:45.379Z,28.23
2018-11-22T08:31:15.288Z,27.10
2018-11-22T08:33:45.221Z,27.97
2018-11-22T08:36:15.383Z,27.40
2018-11-22T08:38:45.273Z,29.60
2018-11-22T08:41:15.172Z,27.03
2018-11-22T08:43:45.088Z,28.70
2018-11-22T08:46:15.046Z,28.30
2018-11-22T08:48:44.894Z,26.30
2018-11-22T08:51:14.800Z,27.27
2018-11-22T08:53:44.823Z,27.73
2018-11-22T08:56:14.721Z,28.17
2018-11-22T08:58:44.616Z,28.40
2018-11-22T09:01:14.527Z,28.13
2018-11-22T09:03:44.427Z,29.40
2018-11-22T09:06:14.336Z,28.10
2018-11-22T09:08:44.332Z,28.33
2018-11-22T09:11:14.227Z,27.43
2018-11-22T09:13:44.115Z,29.07
2018-11-22T09:16:14.065Z,28.20
2018-11-22T09:18:43.969Z,28.70
2018-11-22T09:21:13.904Z,28.90
2018-11-22T09:23:43.795Z,28.40
2018-11-22T09:26:13.716Z,28.83
2018-11-22T09:28:43.630Z,27.53
2018-11-22T09:31:13.584Z,26.93
2018-11-22T09:36:13.434Z,30.50
2018-11-22T09:38:43.385Z,28.60
2018-11-22T09:41:13.330Z,28.50
2018-11-22T09:43:43.281Z,27.10
2018-11-22T09:46:13.303Z,27.00
2018-11-22T09:48:43.289Z,27.20
2018-11-22T09:51:13.392Z,26.17
2018-11-22T09:53:43.688Z,27.27
2018-11-22T09:56:13.593Z,26.67
2018-11-22T09:58:43.492Z,25.97
2018-11-22T10:01:13.366Z,26.80
2018-11-22T10:03:43.278Z,28.63
2018-11-22T10:06:13.152Z,26.77
2018-11-22T10:08:43.492Z,27.13
2018-11-22T10:11:13.537Z,25.90
2018-11-22T10:13:43.429Z,25.53
2018-11-22T10:16:13.410Z,26.37
2018-11-22T10:18:43.372Z,25.10
2018-11-22T10:21:13.512Z,26.47
2018-11-22T10:23:43.849Z,25.60
2018-11-22T10:26:13.834Z,27.60
2018-11-22T10:28:43.741Z,26.63
2018-11-22T10:31:13.632Z,27.67
2018-11-22T10:33:43.551Z,28.00
2018-11-22T10:36:13.416Z,27.13
2018-11-22T12:18:15.488Z,28.87
2018-11-22T12:20:44.335Z,26.30
2018-11-22T12:23:13.012Z,23.10
2018-11-22T12:25:41.676Z,25.87
2018-11-22T12:28:10.635Z,26.60
2018-11-22T12:30:39.277Z,29.07
2018-11-22T12:33:22.265Z,27.17
2018-11-22T12:35:56.342Z,27.40
2018-11-22T12:38:30.406Z,26.90
2018-11-22T12:40:59.073Z,26.93
2018-11-22T12:43:27.732Z,27.17
2018-11-22T12:45:56.423Z,27.93
2018-11-22T12:48:25.108Z,28.03
2018-11-22T12:50:53.768Z,26.63
2018-11-22T12:53:22.449Z,27.80
2018-11-22T12:55:51.134Z,27.77
2018-11-22T12:58:19.893Z,28.60
2018-11-22T13:00:48.586Z,28.03
2018-11-22T13:03:17.255Z,29.50
2018-11-22T13:05:45.943Z,30.60
2018-11-22T13:08:14.617Z,27.13
2018-11-22T13:10:43.317Z,28.27
2018-11-22T13:13:11.982Z,27.33
2018-11-22T13:15:40.647Z,28.83
2018-11-22T13:18:09.306Z,30.00
2018-11-22T13:20:37.982Z,28.53
2018-11-22T13:23:06.637Z,28.53
2018-11-22T13:25:35.319Z,29.77
2018-11-22T13:28:04.195Z,28.30
2018-11-22T13:30:32.883Z,27.97
2018-11-22T13:33:01.569Z,28.20
2018-11-22T13:35:30.229Z,27.50
2018-11-22T13:37:58.915Z,30.17
2018-11-22T13:40:27.646Z,29.77
2018-11-22T13:42:56.577Z,28.03
2018-11-22T13:45:26.610Z,29.60
2018-11-22T13:47:55.921Z,26.87
2018-11-22T13:50:28.393Z,27.30
2018-11-22T13:52:58.711Z,28.47
2018-11-22T13:55:27.697Z,27.40
2018-11-22T13:57:56.573Z,27.27
2018-11-22T14:00:26.625Z,28.47
2018-11-22T14:02:56.732Z,30.27
2018-11-22T14:05:25.386Z,28.27
2018-11-22T14:07:54.066Z,27.97
2018-11-22T14:10:22.872Z,28.27
2018-11-22T14:12:51.788Z,27.20
2018-11-22T14:15:21.685Z,27.00
2018-11-22T14:17:51.619Z,20.83
2018-11-22T14:20:22.845Z,29.50
2018-11-22T14:22:51.507Z,28.30
2018-11-22T14:25:20.158Z,28.80
2018-11-22T14:27:49.850Z,27.57
2018-11-22T14:30:20.071Z,27.37
2018-11-22T14:32:49.458Z,26.83
2018-11-22T14:35:19.026Z,30.07
2018-11-22T14:37:47.677Z,28.93
2018-11-22T14:40:20.525Z,29.77
2018-11-22T14:42:49.929Z,28.67
2018-11-22T14:45:18.654Z,28.57
2018-11-22T14:47:48.509Z,27.03
2018-11-22T14:50:19.122Z,27.93
2018-11-22T14:52:50.959Z,27.00
2018-11-22T14:55:19.622Z,26.30
2018-11-22T14:57:48.322Z,29.60
2018-11-22T15:00:17.206Z,26.80
2018-11-22T15:02:46.991Z,25.10
2018-11-22T15:05:15.992Z,28.30
2018-11-22T15:07:44.976Z,28.83
2018-11-22T15:10:14.903Z,28.47
2018-11-22T15:12:44.702Z,26.00
2018-11-22T15:15:16.764Z,27.30
2018-11-22T15:17:45.417Z,27.50
2018-11-22T15:20:15.293Z,26.93
2018-11-22T15:22:44.672Z,26.57
2018-11-22T15:25:14.706Z,30.10
2018-11-22T15:27:43.905Z,27.93
2018-11-22T15:30:14.019Z,27.00
2018-11-22T15:32:42.674Z,28.07
2018-11-22T15:35:13.034Z,28.03
2018-11-22T15:37:41.903Z,28.97
2018-11-22T15:40:12.985Z,28.27
2018-11-22T15:42:41.646Z,29.27
2018-11-22T15:45:12.645Z,28.50
2018-11-22T15:47:41.356Z,32.10
2018-11-22T15:50:12.309Z,29.23
2018-11-22T15:52:41.486Z,29.23
2018-11-22T15:55:10.917Z,28.80
2018-11-22T15:57:40.077Z,28.93
2018-11-22T16:00:11.885Z,28.03
2018-11-22T16:02:40.539Z,29.83
2018-11-22T16:05:10.145Z,30.63
2018-11-22T16:07:38.842Z,30.27
2018-11-22T16:10:10.106Z,31.10
2018-11-22T16:12:38.859Z,29.53
2018-11-22T16:15:13.718Z,30.83
2018-11-22T16:17:42.904Z,29.27
2018-11-22T16:20:11.590Z,30.20
2018-11-22T16:22:40.686Z,30.20
2018-11-22T16:25:10.708Z,31.63
2018-11-22T16:27:39.593Z,32.40
2018-11-22T16:30:18.507Z,31.53
2018-11-22T16:32:47.216Z,31.70
2018-11-22T16:35:16.799Z,29.67
2018-11-22T16:37:45.792Z,32.10
2018-11-22T16:40:18.825Z,31.47
2018-11-22T16:42:48.502Z,31.23
2018-11-22T16:45:24.550Z,28.90
2018-11-22T16:47:53.213Z,30.73
2018-11-22T16:50:23.364Z,31.27
2018-11-22T16:52:52.356Z,32.47
2018-11-22T16:55:21.637Z,30.20
2018-11-22T16:57:51.481Z,32.47
2018-11-22T17:00:22.698Z,32.30
2018-11-22T17:02:52.345Z,32.97
2018-11-22T17:05:21.230Z,32.90
2018-11-22T17:07:49.985Z,32.67
2018-11-22T17:10:20.034Z,31.50
2018-11-22T17:12:49.510Z,31.83
2018-11-22T17:15:20.261Z,32.37
2018-11-22T17:17:49.353Z,30.47
2018-11-22T17:20:18.865Z,32.10
2018-11-22T17:22:48.241Z,30.83
2018-11-22T17:25:18.277Z,31.00
2018-11-22T17:27:47.881Z,32.70
2018-11-22T17:30:18.102Z,30.97
2018-11-22T17:32:46.984Z,33.07
2018-11-22T17:35:17.218Z,31.17
2018-11-22T17:37:45.905Z,30.00
2018-11-22T17:40:17.154Z,31.37
2018-11-22T17:42:45.832Z,30.13
2018-11-22T17:45:15.953Z,30.20
2018-11-22T17:47:44.723Z,30.87
2018-11-22T17:50:15.102Z,30.03
2018-11-22T17:52:44.036Z,29.80
2018-11-22T17:55:15.461Z,28.43
2018-11-22T17:57:44.126Z,29.20
2018-11-22T18:00:16.757Z,29.20
2018-11-22T18:02:46.873Z,28.90
2018-11-22T18:05:15.538Z,28.80
2018-11-22T18:07:44.206Z,28.30
2018-11-22T18:10:15.112Z,29.60
2018-11-22T18:12:44.825Z,30.50
2018-11-22T18:15:14.815Z,29.80
2018-11-22T18:17:43.619Z,30.00
2018-11-22T18:20:13.860Z,29.47
2018-11-22T18:22:42.609Z,29.13
2018-11-22T18:25:14.258Z,30.23
2018-11-22T18:27:42.921Z,28.73
2018-11-22T18:30:14.593Z,30.17
2018-11-22T18:32:44.009Z,27.60
2018-11-22T18:35:13.417Z,29.93
2018-11-22T18:37:42.083Z,30.00
2018-11-22T18:40:13.633Z,29.47
2018-11-22T18:42:42.659Z,30.53
2018-11-22T18:45:13.268Z,28.80
2018-11-22T18:47:42.796Z,30.57
2018-11-22T18:50:15.703Z,30.50
2018-11-22T18:52:43.438Z,29.77
2018-11-22T18:55:12.222Z,28.50
2018-11-22T18:57:41.630Z,28.60
2018-11-22T19:00:13.451Z,29.23
2018-11-22T19:02:42.294Z,29.80
2018-11-22T19:05:12.274Z,29.90
2018-11-22T19:07:41.989Z,29.20
2018-11-22T19:10:15.029Z,28.80
2018-11-22T19:12:44.689Z,29.20
2018-11-22T19:15:14.617Z,29.90
2018-11-22T19:17:43.390Z,21.80
2018-11-22T19:20:14.548Z,28.37
2018-11-22T19:22:44.438Z,27.40
2018-11-22T19:25:13.430Z,28.40
2018-11-22T19:27:42.731Z,29.43
2018-11-22T19:30:13.739Z,30.50
2018-11-22T19:32:43.086Z,29.40
2018-11-22T19:35:12.694Z,30.37
2018-11-22T19:37:41.741Z,31.60
2018-11-22T19:40:12.843Z,28.30
2018-11-22T19:42:42.219Z,29.00
2018-11-22T19:45:12.261Z,31.07
2018-11-22T19:47:41.127Z,29.30
2018-11-22T19:50:11.913Z,30.90
2018-11-22T19:52:40.753Z,31.00
2018-11-22T19:55:11.925Z,30.17
2018-11-22T19:57:40.895Z,29.87
2018-11-22T20:00:11.023Z,30.17
2018-11-22T20:02:40.562Z,27.33
2018-11-22T20:05:10.889Z,28.10
2018-11-22T20:07:39.933Z,28.40
2018-11-22T20:10:12.738Z,29.10
2018-11-22T20:12:41.503Z,29.73
2018-11-22T20:15:10.298Z,31.40
2018-11-22T20:17:39.179Z,29.97
2018-11-22T20:20:09.373Z,29.70
2018-11-22T20:22:38.285Z,30.17
2018-11-22T20:25:06.947Z,30.80
2018-11-22T20:27:36.000Z,29.23
2018-11-22T20:30:12.009Z,29.87
2018-11-22T20:32:40.718Z,29.33
2018-11-22T20:35:11.455Z,29.90
2018-11-22T20:37:40.355Z,28.80
2018-11-22T20:40:09.952Z,31.17
2018-11-22T20:42:39.263Z,30.13
2018-11-22T20:45:10.766Z,29.77
2018-11-22T20:47:40.343Z,30.57
2018-11-22T20:50:11.480Z,29.40
2018-11-22T20:52:40.138Z,32.03
2018-11-22T20:55:11.294Z,30.30
2018-11-22T20:57:40.000Z,30.87
2018-11-22T21:00:11.726Z,31.90
2018-11-22T21:02:40.401Z,30.17
2018-11-22T21:05:10.122Z,32.73
2018-11-22T21:07:38.854Z,33.27
2018-11-22T21:10:09.641Z,31.20
2018-11-22T21:12:38.748Z,31.97
2018-11-22T21:15:09.451Z,31.80
2018-11-22T21:17:38.276Z,31.20
2018-11-22T21:20:08.049Z,32.07
2018-11-22T21:22:36.709Z,33.67
2018-11-22T21:25:07.217Z,31.67
2018-11-22T21:27:35.970Z,31.77
2018-11-22T21:30:08.601Z,32.30
2018-11-22T21:32:37.285Z,32.70
2018-11-22T21:35:06.461Z,31.13
2018-11-22T21:37:35.269Z,31.90
2018-11-22T21:40:03.956Z,30.97
2018-11-22T21:42:32.647Z,33.60
2018-11-22T21:45:01.314Z,32.03
2018-11-22T21:47:30.154Z,32.03
2018-11-22T21:49:58.842Z,32.23
2018-11-22T21:52:27.528Z,33.53
2018-11-22T21:54:56.274Z,32.60
2018-11-22T21:57:24.941Z,33.30
2018-11-22T21:59:53.622Z,32.97
2018-11-22T22:02:22.297Z,33.97
2018-11-22T22:04:50.996Z,33.87
2018-11-22T22:07:19.664Z,32.87
2018-11-22T22:09:48.339Z,33.70
2018-11-22T22:12:17.029Z,33.13
2018-11-22T22:14:45.704Z,32.80
2018-11-22T22:17:14.372Z,30.77
2018-11-22T22:19:43.067Z,33.50
2018-11-22T22:22:11.732Z,34.43
2018-11-22T22:24:40.407Z,32.93
2018-11-22T22:27:09.106Z,33.13
2018-11-22T22:29:37.783Z,33.50
2018-11-22T22:32:06.449Z,33.53
2018-11-22T22:34:35.623Z,32.90
2018-11-22T22:37:04.321Z,32.53
2018-11-22T22:39:32.977Z,33.90
2018-11-22T22:42:01.714Z,34.47
2018-11-22T22:44:30.390Z,33.90
2018-11-22T22:46:59.082Z,34.50
2018-11-22T22:49:27.749Z,33.67
2018-11-22T22:51:56.447Z,35.37
2018-11-22T22:54:25.397Z,34.10
2018-11-22T22:56:54.101Z,37.03
2018-11-22T22:59:22.757Z,35.40
2018-11-22T23:01:51.508Z,34.13
2018-11-22T23:04:20.160Z,33.37
2018-11-22T23:06:48.817Z,35.30
2018-11-22T23:09:17.506Z,35.50
2018-11-22T23:11:46.166Z,37.80
2018-11-22T23:14:14.853Z,37.30
2018-11-22T23:16:43.518Z,37.10
2018-11-22T23:19:12.222Z,37.63
2018-11-22T23:21:40.882Z,35.27
2018-11-22T23:24:09.615Z,35.40
2018-11-22T23:26:38.279Z,36.37
2018-11-22T23:29:06.965Z,35.73
2018-11-22T23:31:35.626Z,36.67
2018-11-22T23:34:04.342Z,37.97
2018-11-22T23:36:33.029Z,38.70
2018-11-22T23:39:01.725Z,36.77
2018-11-22T23:41:30.389Z,38.57
2018-11-22T23:43:59.067Z,37.57
2018-11-22T23:46:27.729Z,39.20
2018-11-22T23:48:56.413Z,36.37
2018-11-22T23:51:25.093Z,37.07
2018-11-22T23:53:53.949Z,37.67
2018-11-22T23:56:22.609Z,38.87
2018-11-22T23:58:51.254Z,38.00
